createdAt,value
2023-04-17T00:00:50.148Z,59.10
2023-04-17T00:01:50.261Z,59.01
2023-04-17T00:02:50.355Z,59.06
2023-04-17T00:03:50.303Z,59.29
2023-04-17T00:04:50.457Z,59.08
2023-04-17T00:05:50.433Z,59.50
2023-04-17T00:06:50.488Z,59.44
2023-04-17T00:07:50.543Z,59.50
2023-04-17T00:08:50.592Z,59.77
2023-04-17T00:09:50.606Z,59.93
2023-04-17T00:10:57.002Z,60.49
2023-04-17T00:11:51.646Z,60.33
2023-04-17T00:12:50.690Z,60.00
2023-04-17T00:13:50.627Z,60.32
2023-04-17T00:14:50.631Z,60.30
2023-04-17T00:15:50.641Z,60.10
2023-04-17T00:16:50.760Z,60.31
2023-04-17T00:17:50.723Z,59.80
2023-04-17T00:18:50.590Z,59.73
2023-04-17T00:19:50.646Z,59.45
2023-04-17T00:20:50.677Z,59.53
2023-04-17T00:21:50.742Z,59.24
2023-04-17T00:22:50.890Z,59.21
2023-04-17T00:23:50.824Z,59.45
2023-04-17T00:24:50.909Z,59.59
2023-04-17T00:25:50.927Z,59.38
2023-04-17T00:26:50.948Z,59.15
2023-04-17T00:27:51.066Z,59.37
2023-04-17T00:28:51.062Z,59.48
2023-04-17T00:29:51.100Z,59.32
2023-04-17T00:30:51.153Z,59.11
2023-04-17T00:31:51.227Z,58.83
2023-04-17T00:32:51.263Z,58.82
2023-04-17T00:33:51.178Z,59.18
2023-04-17T00:34:51.724Z,58.84
2023-04-17T00:35:51.208Z,58.76
2023-04-17T00:36:51.228Z,58.43
2023-04-17T00:37:51.272Z,58.22
2023-04-17T00:38:51.298Z,58.06
2023-04-17T00:39:51.322Z,57.82
2023-04-17T00:40:51.325Z,57.78
2023-04-17T00:41:51.316Z,57.97
2023-04-17T00:42:51.898Z,57.81
2023-04-17T00:43:51.325Z,57.67
2023-04-17T00:44:51.317Z,57.69
2023-04-17T00:45:51.379Z,57.35
2023-04-17T00:46:51.390Z,57.88
2023-04-17T00:47:51.449Z,57.83
2023-04-17T00:48:51.389Z,58.09
2023-04-17T00:49:51.376Z,57.84
2023-04-17T00:50:51.431Z,57.67
2023-04-17T00:51:51.414Z,57.37
2023-04-17T00:52:51.419Z,57.20
2023-04-17T00:53:51.440Z,56.90
2023-04-17T00:54:51.435Z,56.81
2023-04-17T00:55:51.441Z,56.48
2023-04-17T00:56:51.453Z,56.38
2023-04-17T00:57:51.443Z,56.14
2023-04-17T00:58:51.508Z,56.75
2023-04-17T00:59:51.475Z,56.60
2023-04-17T01:00:51.474Z,57.06
2023-04-17T01:01:51.580Z,56.96
2023-04-17T01:02:51.679Z,56.74
2023-04-17T01:03:51.604Z,56.76
2023-04-17T01:04:51.554Z,57.26
2023-04-17T01:05:51.506Z,56.88
2023-04-17T01:06:51.554Z,57.11
2023-04-17T01:07:51.603Z,56.87
2023-04-17T01:08:51.582Z,56.59
2023-04-17T01:09:51.546Z,56.49
2023-04-17T01:10:51.558Z,56.37
2023-04-17T01:11:51.657Z,56.16
2023-04-17T01:12:51.581Z,56.03
2023-04-17T01:13:51.647Z,56.00
2023-04-17T01:14:51.583Z,55.89
2023-04-17T01:15:51.992Z,55.83
2023-04-17T01:16:51.649Z,55.69
2023-04-17T01:17:51.703Z,55.46
2023-04-17T01:18:51.650Z,55.58
2023-04-17T01:19:51.648Z,55.69
2023-04-17T01:20:51.671Z,55.20
2023-04-17T01:21:51.702Z,55.04
2023-04-17T01:22:51.846Z,54.78
2023-04-17T01:23:51.890Z,54.99
2023-04-17T01:24:51.884Z,55.30
2023-04-17T01:25:52.834Z,55.86
2023-04-17T01:26:51.949Z,56.15
2023-04-17T01:27:51.971Z,56.89
2023-04-17T01:28:52.055Z,56.60
2023-04-17T01:29:52.089Z,56.42
2023-04-17T01:30:52.289Z,56.25
2023-04-17T01:31:52.147Z,56.06
2023-04-17T01:32:52.237Z,56.22
2023-04-17T01:33:52.270Z,56.16
2023-04-17T01:34:52.269Z,56.19
2023-04-17T01:35:52.345Z,56.22
2023-04-17T01:36:52.389Z,56.34
2023-04-17T01:37:52.456Z,56.22
2023-04-17T01:38:52.438Z,56.12
2023-04-17T01:39:52.482Z,56.43
2023-04-17T01:40:52.512Z,56.82
2023-04-17T01:41:52.521Z,56.95
2023-04-17T01:42:52.552Z,57.75
2023-04-17T01:43:52.525Z,57.45
2023-04-17T01:44:52.516Z,56.86
2023-04-17T01:45:52.532Z,56.46
2023-04-17T01:46:52.573Z,56.00
2023-04-17T01:47:52.674Z,55.62
2023-04-17T01:48:52.633Z,55.54
2023-04-17T01:49:52.642Z,55.15
2023-04-17T01:50:52.656Z,55.31
2023-04-17T01:51:52.658Z,55.44
2023-04-17T01:52:52.669Z,55.42
2023-04-17T01:53:52.711Z,55.49
2023-04-17T01:54:52.687Z,55.19
2023-04-17T01:55:52.693Z,55.09
2023-04-17T01:56:52.729Z,55.70
2023-04-17T01:57:52.801Z,55.94
2023-04-17T01:58:52.799Z,56.21
2023-04-17T01:59:52.819Z,56.25
2023-04-17T02:00:52.835Z,56.76
2023-04-17T02:01:52.912Z,56.27
2023-04-17T02:02:53.102Z,56.38
2023-04-17T02:03:53.182Z,56.74
2023-04-17T02:04:52.913Z,56.30
2023-04-17T02:05:53.001Z,56.55
2023-04-17T02:06:53.033Z,56.14
2023-04-17T02:07:53.115Z,55.96
2023-04-17T02:08:53.133Z,55.85
2023-04-17T02:09:53.197Z,55.91
2023-04-17T02:10:53.197Z,55.63
2023-04-17T02:11:53.260Z,55.57
2023-04-17T02:12:53.309Z,55.66
2023-04-17T02:13:53.338Z,55.53
2023-04-17T02:14:53.389Z,55.83
2023-04-17T02:15:53.443Z,56.01
2023-04-17T02:16:53.500Z,55.91
2023-04-17T02:17:53.609Z,55.87
2023-04-17T02:18:53.610Z,55.87
2023-04-17T02:19:53.630Z,55.85
2023-04-17T02:20:53.683Z,55.94
2023-04-17T02:21:53.683Z,55.71
2023-04-17T02:22:53.753Z,55.51
2023-04-17T02:23:53.801Z,55.69
2023-04-17T02:24:53.848Z,55.76
2023-04-17T02:25:53.920Z,56.70
2023-04-17T02:26:53.977Z,55.79
2023-04-17T02:27:54.074Z,55.58
2023-04-17T02:28:54.019Z,55.35
2023-04-17T02:29:54.026Z,55.62
2023-04-17T02:30:54.145Z,56.00
2023-04-17T02:31:54.165Z,55.82
2023-04-17T02:32:54.237Z,55.55
2023-04-17T02:33:54.225Z,55.04
2023-04-17T02:34:54.268Z,54.81
2023-04-17T02:35:54.297Z,54.73
2023-04-17T02:36:54.416Z,54.58
2023-04-17T02:37:54.414Z,55.11
2023-04-17T02:38:54.444Z,55.37
2023-04-17T02:39:54.441Z,55.69
2023-04-17T02:40:54.420Z,55.80
2023-04-17T02:41:54.426Z,55.49
2023-04-17T02:42:54.481Z,55.76
2023-04-17T02:43:54.527Z,55.73
2023-04-17T02:44:54.561Z,55.57
2023-04-17T02:45:54.611Z,55.62
2023-04-17T02:46:54.662Z,56.09
2023-04-17T02:47:54.763Z,55.99
2023-04-17T02:48:54.692Z,56.53
2023-04-17T02:49:55.748Z,56.37
2023-04-17T02:50:54.840Z,56.70
2023-04-17T02:51:54.856Z,55.84
2023-04-17T02:52:54.946Z,56.67
2023-04-17T02:53:54.989Z,56.59
2023-04-17T02:54:55.039Z,57.19
2023-04-17T02:55:55.105Z,57.06
2023-04-17T02:56:55.159Z,57.48
2023-04-17T02:57:55.223Z,56.99
2023-04-17T02:58:55.315Z,56.68
2023-04-17T02:59:55.416Z,56.91
2023-04-17T03:00:55.511Z,57.25
2023-04-17T03:01:55.551Z,56.90
2023-04-17T03:02:55.715Z,57.32
2023-04-17T03:03:55.829Z,57.33
2023-04-17T03:04:55.633Z,57.68
2023-04-17T03:05:55.656Z,57.53
2023-04-17T03:06:55.688Z,57.40
2023-04-17T03:07:55.787Z,56.87
2023-04-17T03:08:55.789Z,56.74
2023-04-17T03:09:55.850Z,56.13
2023-04-17T03:10:55.864Z,55.95
2023-04-17T03:11:55.927Z,55.52
2023-04-17T03:12:55.990Z,55.52
2023-04-17T03:13:56.000Z,56.01
2023-04-17T03:14:56.075Z,56.60
2023-04-17T03:15:56.120Z,57.45
2023-04-17T03:16:56.250Z,57.06
2023-04-17T03:17:56.305Z,56.99
2023-04-17T03:18:56.287Z,56.58
2023-04-17T03:19:56.388Z,56.74
2023-04-17T03:20:56.479Z,56.40
2023-04-17T03:21:56.492Z,56.22
2023-04-17T03:22:56.581Z,56.72
2023-04-17T03:23:56.625Z,56.94
2023-04-17T03:24:56.637Z,57.37
2023-04-17T03:25:57.010Z,57.52
2023-04-17T03:26:56.757Z,57.78
2023-04-17T03:27:56.847Z,58.24
2023-04-17T03:28:56.856Z,57.96
2023-04-17T03:29:56.971Z,58.01
2023-04-17T03:30:56.985Z,58.20
2023-04-17T03:31:57.044Z,58.38
2023-04-17T03:32:57.194Z,57.92
2023-04-17T03:33:57.072Z,58.09
2023-04-17T03:34:57.090Z,58.89
2023-04-17T03:35:57.124Z,58.29
2023-04-17T03:36:57.148Z,58.25
2023-04-17T03:37:57.328Z,58.67
2023-04-17T03:38:57.256Z,58.34
2023-04-17T03:39:57.299Z,57.79
2023-04-17T03:40:57.322Z,57.39
2023-04-17T03:41:57.397Z,57.23
2023-04-17T03:42:57.430Z,57.51
2023-04-17T03:43:57.496Z,57.62
2023-04-17T03:44:57.571Z,57.17
2023-04-17T03:45:57.721Z,57.02
2023-04-17T03:46:57.637Z,56.87
2023-04-17T03:47:57.690Z,56.60
2023-04-17T03:48:57.657Z,56.26
2023-04-17T03:49:57.681Z,55.89
2023-04-17T03:50:57.690Z,55.84
2023-04-17T03:51:57.730Z,56.61
2023-04-17T03:52:57.719Z,56.36
2023-04-17T03:53:57.758Z,56.40
2023-04-17T03:54:57.768Z,56.51
2023-04-17T03:55:57.837Z,56.47
2023-04-17T03:56:57.925Z,56.92
2023-04-17T03:57:57.982Z,57.00
2023-04-17T03:58:58.011Z,56.96
2023-04-17T03:59:58.086Z,56.67
2023-04-17T04:00:58.164Z,56.51
2023-04-17T04:01:58.375Z,56.35
2023-04-17T04:02:58.383Z,56.22
2023-04-17T04:03:58.432Z,56.26
2023-04-17T04:04:58.405Z,56.33
2023-04-17T04:05:58.458Z,56.65
2023-04-17T04:06:58.546Z,56.89
2023-04-17T04:07:58.633Z,56.54
2023-04-17T04:08:58.643Z,56.50
2023-04-17T04:09:58.674Z,56.29
2023-04-17T04:10:58.772Z,56.39
2023-04-17T04:11:58.829Z,56.20
2023-04-17T04:12:58.892Z,56.15
2023-04-17T04:13:58.964Z,56.04
2023-04-17T04:14:59.007Z,55.81
2023-04-17T04:15:59.117Z,56.09
2023-04-17T04:16:59.108Z,56.16
2023-04-17T04:17:59.200Z,56.15
2023-04-17T04:18:59.186Z,56.04
2023-04-17T04:19:59.249Z,55.95
2023-04-17T04:20:59.321Z,55.79
2023-04-17T04:21:59.370Z,55.58
2023-04-17T04:22:59.781Z,55.84
2023-04-17T04:23:59.388Z,55.72
2023-04-17T04:24:59.442Z,55.59
2023-04-17T04:25:59.466Z,55.82
2023-04-17T04:26:59.516Z,55.86
2023-04-17T04:27:59.589Z,55.50
2023-04-17T04:28:59.714Z,55.48
2023-04-17T04:29:59.702Z,55.59
2023-04-17T04:30:59.756Z,55.77
2023-04-17T04:31:59.830Z,56.32
2023-04-17T04:32:59.910Z,56.97
2023-04-17T04:33:59.870Z,56.71
2023-04-17T04:34:59.938Z,56.64
2023-04-17T04:35:59.964Z,56.53
2023-04-17T04:36:59.974Z,56.85
2023-04-17T04:38:00.113Z,57.34
2023-04-17T04:39:00.119Z,57.41
2023-04-17T04:40:00.133Z,57.45
2023-04-17T04:41:00.200Z,57.38
2023-04-17T04:42:00.216Z,57.53
2023-04-17T04:43:00.374Z,57.45
2023-04-17T04:44:00.334Z,58.02
2023-04-17T04:45:00.383Z,57.97
2023-04-17T04:46:00.477Z,57.72
2023-04-17T04:47:00.661Z,57.71
2023-04-17T04:48:00.627Z,57.59
2023-04-17T04:49:00.632Z,57.44
2023-04-17T04:50:00.695Z,57.68
2023-04-17T04:51:00.702Z,57.52
2023-04-17T04:52:00.742Z,57.11
2023-04-17T04:53:00.822Z,57.27
2023-04-17T04:54:00.871Z,57.05
2023-04-17T04:55:00.844Z,56.81
2023-04-17T04:56:00.860Z,56.81
2023-04-17T04:57:00.934Z,56.84
2023-04-17T04:58:00.939Z,57.27
2023-04-17T04:59:00.969Z,57.24
2023-04-17T05:00:00.949Z,56.99
2023-04-17T05:02:28.597Z,56.88
2023-04-17T05:03:21.065Z,56.79
2023-04-17T05:04:20.589Z,56.46
2023-04-17T05:05:20.508Z,56.40
2023-04-17T05:06:20.544Z,57.16
2023-04-17T05:07:20.582Z,57.15
2023-04-17T05:08:20.588Z,56.83
2023-04-17T05:09:20.536Z,56.92
2023-04-17T05:10:20.520Z,56.53
2023-04-17T05:11:20.496Z,57.40
2023-04-17T05:12:20.518Z,57.18
2023-04-17T05:13:20.565Z,57.30
2023-04-17T05:14:20.556Z,57.07
2023-04-17T05:15:20.646Z,57.38
2023-04-17T05:16:20.652Z,58.14
2023-04-17T05:17:20.740Z,58.16
2023-04-17T05:18:20.682Z,58.91
2023-04-17T05:19:20.708Z,58.18
2023-04-17T05:20:20.709Z,58.25
2023-04-17T05:21:20.799Z,58.05
2023-04-17T05:22:20.782Z,57.89
2023-04-17T05:23:20.932Z,58.05
2023-04-17T05:24:20.814Z,57.98
2023-04-17T05:25:20.868Z,57.79
2023-04-17T05:26:20.751Z,57.43
2023-04-17T05:27:20.808Z,57.92
2023-04-17T05:28:20.982Z,57.93
2023-04-17T05:29:20.924Z,57.61
2023-04-17T05:30:20.914Z,57.21
2023-04-17T05:31:21.000Z,56.76
2023-04-17T05:32:21.026Z,56.72
2023-04-17T05:33:21.256Z,57.00
2023-04-17T05:34:20.961Z,56.74
2023-04-17T05:35:20.953Z,56.57
2023-04-17T05:36:21.242Z,56.45
2023-04-17T05:37:20.938Z,56.16
2023-04-17T05:38:21.389Z,56.42
2023-04-17T05:39:21.637Z,56.39
2023-04-17T05:40:21.634Z,56.92
2023-04-17T05:41:21.284Z,57.30
2023-04-17T05:42:21.153Z,57.15
2023-04-17T05:43:21.697Z,57.15
2023-04-17T05:44:21.723Z,57.89
2023-04-17T05:46:29.200Z,58.17
2023-04-17T05:47:21.359Z,58.23
2023-04-17T05:48:21.680Z,57.98
2023-04-17T05:49:21.940Z,57.78
2023-04-17T05:50:21.603Z,57.69
2023-04-17T05:51:21.378Z,57.34
2023-04-17T05:52:21.430Z,57.29
2023-04-17T05:53:21.433Z,57.13
2023-04-17T05:54:21.352Z,57.08
2023-04-17T05:55:21.241Z,56.61
2023-04-17T05:56:21.325Z,56.41
2023-04-17T05:57:21.345Z,56.44
2023-04-17T05:58:24.429Z,56.22
2023-04-17T05:59:21.221Z,55.95
2023-04-17T06:00:22.536Z,55.51
2023-04-17T06:01:21.476Z,55.21
2023-04-17T06:02:21.400Z,54.50
2023-04-17T06:03:21.513Z,54.26
2023-04-17T06:04:21.582Z,54.01
2023-04-17T06:05:21.415Z,54.09
2023-04-17T06:06:21.278Z,54.39
2023-04-17T06:07:21.311Z,54.52
2023-04-17T06:08:21.335Z,53.95
2023-04-17T06:09:21.299Z,53.76
2023-04-17T06:10:21.231Z,53.96
2023-04-17T06:11:21.346Z,54.08
2023-04-17T06:12:21.724Z,53.79
2023-04-17T06:13:21.256Z,53.78
2023-04-17T06:14:21.246Z,53.53
2023-04-17T06:15:21.285Z,53.77
2023-04-17T06:16:21.229Z,53.52
2023-04-17T06:17:21.221Z,53.32
2023-04-17T06:18:21.205Z,53.96
2023-04-17T06:19:21.231Z,54.09
2023-04-17T06:20:21.211Z,53.64
2023-04-17T06:21:21.236Z,53.68
2023-04-17T06:22:21.150Z,53.16
2023-04-17T06:23:21.193Z,53.29
2023-04-17T06:24:21.344Z,53.01
2023-04-17T06:25:21.165Z,52.78
2023-04-17T06:26:21.153Z,52.39
2023-04-17T06:27:21.152Z,52.47
2023-04-17T06:28:21.085Z,52.64
2023-04-17T06:29:21.114Z,52.69
2023-04-17T06:30:21.194Z,53.02
2023-04-17T06:31:21.222Z,52.92
2023-04-17T06:32:21.104Z,53.91
2023-04-17T06:33:21.052Z,53.58
2023-04-17T06:34:21.092Z,53.08
2023-04-17T06:35:21.115Z,52.82
2023-04-17T06:36:21.114Z,53.11
2023-04-17T06:37:21.179Z,52.94
2023-04-17T06:38:21.040Z,52.84
2023-04-17T06:39:21.399Z,52.83
2023-04-17T06:40:21.067Z,52.82
2023-04-17T06:41:21.038Z,52.28
2023-04-17T06:42:21.082Z,51.90
2023-04-17T06:43:21.789Z,51.93
2023-04-17T06:44:21.745Z,51.96
2023-04-17T06:45:21.318Z,51.72
2023-04-17T06:46:20.998Z,51.74
2023-04-17T06:47:20.979Z,51.72
2023-04-17T06:48:20.968Z,51.37
2023-04-17T06:49:20.924Z,51.19
2023-04-17T06:50:20.957Z,50.98
2023-04-17T06:51:20.988Z,50.79
2023-04-17T06:52:20.947Z,50.50
2023-04-17T06:53:20.942Z,50.41
2023-04-17T06:54:20.919Z,50.81
2023-04-17T06:55:21.403Z,50.96
2023-04-17T06:56:21.037Z,51.25
2023-04-17T06:57:21.007Z,51.60
2023-04-17T06:58:21.018Z,51.62
2023-04-17T06:59:21.017Z,51.45
2023-04-17T07:00:20.997Z,51.13
2023-04-17T07:01:21.097Z,51.54
2023-04-17T07:02:21.274Z,51.41
2023-04-17T07:03:21.146Z,52.67
2023-04-17T07:04:21.200Z,52.75
2023-04-17T07:05:21.096Z,52.69
2023-04-17T07:06:21.039Z,52.91
2023-04-17T07:07:20.942Z,53.12
2023-04-17T07:08:20.922Z,52.94
2023-04-17T07:09:20.865Z,52.52
2023-04-17T07:10:21.065Z,52.74
2023-04-17T07:11:20.892Z,52.57
2023-04-17T07:12:20.863Z,52.12
2023-04-17T07:13:20.904Z,52.17
2023-04-17T07:14:20.893Z,52.30
2023-04-17T07:15:20.934Z,52.37
2023-04-17T07:16:20.994Z,52.59
2023-04-17T07:17:20.923Z,52.62
2023-04-17T07:18:20.818Z,52.21
2023-04-17T07:19:20.818Z,51.40
2023-04-17T07:20:20.827Z,50.81
2023-04-17T07:21:20.828Z,50.57
2023-04-17T07:22:20.900Z,50.24
2023-04-17T07:23:20.840Z,50.35
2023-04-17T07:24:20.764Z,49.89
2023-04-17T07:25:20.869Z,49.48
2023-04-17T07:26:20.822Z,49.23
2023-04-17T07:27:20.772Z,49.32
2023-04-17T07:28:20.782Z,49.11
2023-04-17T07:29:20.846Z,48.66
2023-04-17T07:30:20.765Z,49.16
2023-04-17T07:31:20.835Z,48.91
2023-04-17T07:32:20.692Z,48.35
2023-04-17T07:33:20.781Z,48.11
2023-04-17T07:34:20.859Z,48.49
2023-04-17T07:35:21.411Z,47.77
2023-04-17T07:36:20.736Z,47.35
2023-04-17T07:37:20.777Z,47.11
2023-04-17T07:38:20.744Z,46.69
2023-04-17T07:39:20.722Z,46.36
2023-04-17T07:40:20.859Z,45.36
2023-04-17T07:41:20.754Z,44.70
2023-04-17T07:42:20.673Z,45.11
2023-04-17T07:43:20.967Z,45.10
2023-04-17T07:44:20.695Z,44.92
2023-04-17T07:45:20.689Z,45.05
2023-04-17T07:46:20.734Z,45.56
2023-04-17T07:47:20.785Z,45.14
2023-04-17T07:48:20.780Z,45.08
2023-04-17T07:49:20.613Z,44.30
2023-04-17T07:50:20.626Z,43.78
2023-04-17T07:51:20.634Z,43.58
2023-04-17T07:52:20.637Z,43.58
2023-04-17T07:53:20.720Z,43.62
2023-04-17T07:54:20.655Z,43.62
2023-04-17T07:55:20.563Z,43.75
2023-04-17T07:56:20.725Z,44.38
2023-04-17T07:57:20.594Z,43.99
2023-04-17T07:58:20.588Z,44.13
2023-04-17T07:59:20.657Z,43.66
2023-04-17T08:00:21.605Z,43.89
2023-04-17T08:01:20.663Z,43.95
2023-04-17T08:02:21.409Z,43.77
2023-04-17T08:03:20.982Z,43.49
2023-04-17T08:04:21.554Z,43.51
2023-04-17T08:05:21.360Z,43.68
2023-04-17T08:06:20.975Z,43.56
2023-04-17T08:07:21.763Z,43.50
2023-04-17T08:08:21.011Z,43.49
2023-04-17T08:09:20.935Z,42.98
2023-04-17T08:10:22.392Z,42.58
2023-04-17T08:11:20.834Z,42.52
2023-04-17T08:12:20.985Z,43.15
2023-04-17T08:13:20.864Z,43.32
2023-04-17T08:14:20.733Z,42.79
2023-04-17T08:15:20.890Z,42.73
2023-04-17T08:16:21.796Z,43.28
2023-04-17T08:17:20.818Z,43.18
2023-04-17T08:18:20.867Z,43.28
2023-04-17T08:19:20.969Z,43.29
2023-04-17T08:20:20.881Z,42.94
2023-04-17T08:21:20.786Z,43.03
2023-04-17T08:22:20.818Z,42.86
2023-04-17T08:23:20.621Z,42.79
2023-04-17T08:24:20.799Z,42.47
2023-04-17T08:25:21.784Z,42.57
2023-04-17T08:26:20.959Z,42.57
2023-04-17T08:27:21.446Z,42.38
2023-04-17T08:28:20.752Z,42.01
2023-04-17T08:29:21.374Z,41.90
2023-04-17T08:30:21.377Z,41.92
2023-04-17T08:31:20.795Z,41.79
2023-04-17T08:32:20.630Z,42.09
2023-04-17T08:33:21.222Z,42.32
2023-04-17T08:34:20.611Z,42.71
2023-04-17T08:35:20.934Z,42.56
2023-04-17T08:36:21.003Z,42.35
2023-04-17T08:37:20.629Z,42.34
2023-04-17T08:38:21.355Z,41.63
2023-04-17T08:39:20.552Z,41.11
2023-04-17T08:40:21.779Z,41.00
2023-04-17T08:41:20.562Z,40.81
2023-04-17T08:42:20.572Z,40.31
2023-04-17T08:43:20.581Z,40.17
2023-04-17T08:44:20.611Z,40.35
2023-04-17T08:45:21.320Z,40.31
2023-04-17T08:46:20.653Z,39.82
2023-04-17T08:47:24.408Z,39.55
2023-04-17T08:48:20.587Z,39.39
2023-04-17T08:49:20.573Z,39.61
2023-04-17T08:50:20.563Z,39.44
2023-04-17T08:51:20.528Z,39.28
2023-04-17T08:52:20.601Z,38.55
2023-04-17T08:53:20.549Z,38.38
2023-04-17T08:54:20.462Z,38.50
2023-04-17T08:55:20.544Z,37.88
2023-04-17T08:56:20.469Z,38.43
2023-04-17T08:57:20.476Z,38.82
2023-04-17T08:58:20.478Z,38.18
2023-04-17T08:59:20.464Z,37.81
2023-04-17T09:00:20.588Z,37.39
2023-04-17T09:01:21.690Z,37.44
2023-04-17T09:02:20.703Z,37.41
2023-04-17T09:03:20.746Z,38.38
2023-04-17T09:04:20.804Z,37.04
2023-04-17T09:05:20.618Z,36.37
2023-04-17T09:06:21.480Z,36.48
2023-04-17T09:07:20.508Z,37.15
2023-04-17T09:08:20.573Z,37.14
2023-04-17T09:09:20.566Z,36.77
2023-04-17T09:10:20.869Z,37.32
2023-04-17T09:11:20.670Z,37.41
2023-04-17T09:12:20.756Z,38.26
2023-04-17T09:13:20.651Z,37.71
2023-04-17T09:14:21.833Z,37.87
2023-04-17T09:15:20.574Z,37.33
2023-04-17T09:16:21.577Z,37.40
2023-04-17T09:17:20.595Z,37.32
2023-04-17T09:18:20.653Z,37.26
2023-04-17T09:19:20.573Z,37.44
2023-04-17T09:20:20.728Z,37.42
2023-04-17T09:21:21.040Z,37.26
2023-04-17T09:22:20.845Z,36.85
2023-04-17T09:23:20.768Z,36.13
2023-04-17T09:24:20.818Z,35.45
2023-04-17T09:25:20.757Z,35.91
2023-04-17T09:26:20.973Z,35.71
2023-04-17T09:27:20.709Z,35.57
2023-04-17T09:28:20.698Z,35.51
2023-04-17T09:29:20.765Z,35.61
2023-04-17T09:30:20.692Z,35.58
2023-04-17T09:31:20.713Z,35.65
2023-04-17T09:32:20.787Z,35.79
2023-04-17T09:33:20.678Z,36.07
2023-04-17T09:34:20.972Z,36.98
2023-04-17T09:35:20.622Z,36.87
2023-04-17T09:36:22.058Z,37.12
2023-04-17T09:37:20.596Z,38.13
2023-04-17T09:38:20.639Z,37.76
2023-04-17T09:39:20.960Z,37.70
2023-04-17T09:40:20.630Z,37.32
2023-04-17T09:41:20.955Z,37.07
2023-04-17T09:42:20.831Z,36.98
2023-04-17T09:43:20.653Z,37.14
2023-04-17T09:44:20.655Z,37.58
2023-04-17T09:45:20.672Z,38.44
2023-04-17T09:46:20.924Z,38.85
2023-04-17T09:47:20.626Z,39.80
2023-04-17T09:48:20.584Z,39.50
2023-04-17T09:49:20.527Z,39.22
2023-04-17T09:50:20.705Z,39.07
2023-04-17T09:51:20.993Z,38.92
2023-04-17T09:52:20.849Z,38.82
2023-04-17T09:53:21.566Z,38.26
2023-04-17T09:54:20.659Z,38.40
2023-04-17T09:55:20.681Z,38.28
2023-04-17T09:56:20.666Z,37.68
2023-04-17T09:57:20.474Z,37.87
2023-04-17T09:58:20.574Z,37.44
2023-04-17T09:59:20.540Z,37.20
2023-04-17T10:00:20.520Z,37.23
2023-04-17T10:01:20.654Z,37.44
2023-04-17T10:02:20.627Z,37.67
2023-04-17T10:03:20.618Z,37.50
2023-04-17T10:04:20.647Z,37.49
2023-04-17T10:05:20.443Z,37.73
2023-04-17T10:06:20.438Z,37.52
2023-04-17T10:07:20.388Z,37.45
2023-04-17T10:08:20.505Z,37.27
2023-04-17T10:09:20.448Z,36.99
2023-04-17T10:10:20.431Z,36.98
2023-04-17T10:11:20.450Z,37.55
2023-04-17T10:12:20.461Z,37.58
2023-04-17T10:13:20.478Z,37.42
2023-04-17T10:14:21.327Z,37.30
2023-04-17T10:15:20.449Z,37.11
2023-04-17T10:16:21.067Z,37.28
2023-04-17T10:17:20.401Z,37.76
2023-04-17T10:18:21.041Z,37.81
2023-04-17T10:19:21.289Z,38.56
2023-04-17T10:20:20.471Z,38.38
2023-04-17T10:21:20.495Z,38.94
2023-04-17T10:22:20.442Z,38.61
2023-04-17T10:23:20.354Z,38.66
2023-04-17T10:24:20.364Z,39.10
2023-04-17T10:25:20.380Z,38.45
2023-04-17T10:26:20.470Z,38.29
2023-04-17T10:27:20.337Z,38.15
2023-04-17T10:28:20.327Z,37.99
2023-04-17T10:29:20.799Z,38.16
2023-04-17T10:31:20.427Z,37.92
2023-04-17T10:32:20.349Z,38.04
2023-04-17T10:33:20.330Z,38.16
2023-04-17T10:34:20.268Z,38.03
2023-04-17T10:35:20.291Z,37.68
2023-04-17T10:36:20.455Z,37.81
2023-04-17T10:37:20.297Z,37.99
2023-04-17T10:38:20.236Z,38.47
2023-04-17T10:39:20.363Z,38.55
2023-04-17T10:40:21.360Z,38.69
2023-04-17T10:41:20.569Z,40.49
2023-04-17T10:42:20.369Z,40.44
2023-04-17T10:43:20.273Z,40.42
2023-04-17T10:44:20.284Z,40.09
2023-04-17T10:45:20.840Z,40.01
2023-04-17T10:46:20.474Z,39.19
2023-04-17T10:47:20.370Z,39.15
2023-04-17T10:48:20.305Z,39.54
2023-04-17T10:49:20.297Z,39.62
2023-04-17T10:50:20.288Z,40.01
2023-04-17T10:51:20.310Z,39.89
2023-04-17T10:52:20.213Z,39.92
2023-04-17T10:53:20.229Z,39.91
2023-04-17T10:54:20.223Z,39.60
2023-04-17T10:55:20.225Z,39.43
2023-04-17T10:56:20.572Z,39.54
2023-04-17T10:57:20.341Z,39.28
2023-04-17T10:58:20.955Z,39.69
2023-04-17T10:59:20.345Z,39.54
2023-04-17T11:00:20.202Z,39.36
2023-04-17T11:01:20.462Z,39.03
2023-04-17T11:02:20.318Z,38.58
2023-04-17T11:03:20.410Z,38.57
2023-04-17T11:04:20.215Z,38.57
2023-04-17T11:05:20.179Z,38.78
2023-04-17T11:06:20.900Z,38.81
2023-04-17T11:07:20.143Z,38.88
2023-04-17T11:08:20.171Z,38.91
2023-04-17T11:09:20.220Z,38.92
2023-04-17T11:10:20.183Z,38.70
2023-04-17T11:11:26.923Z,38.83
2023-04-17T11:12:20.128Z,38.75
2023-04-17T11:13:20.164Z,38.84
2023-04-17T11:14:20.184Z,39.22
2023-04-17T11:15:20.157Z,39.29
2023-04-17T11:16:20.423Z,39.68
2023-04-17T11:17:20.235Z,39.76
2023-04-17T11:18:20.205Z,40.39
2023-04-17T11:19:20.082Z,40.41
2023-04-17T11:20:20.023Z,40.36
2023-04-17T11:21:20.437Z,40.45
2023-04-17T11:22:20.111Z,40.17
2023-04-17T11:23:20.049Z,39.91
2023-04-17T11:24:20.079Z,40.04
2023-04-17T11:25:20.133Z,39.91
2023-04-17T11:26:20.456Z,39.97
2023-04-17T11:27:20.147Z,40.18
2023-04-17T11:28:20.248Z,40.06
2023-04-17T11:29:20.219Z,39.76
2023-04-17T11:30:20.292Z,39.49
2023-04-17T11:31:21.545Z,39.87
2023-04-17T11:32:20.395Z,40.27
2023-04-17T11:33:20.691Z,40.22
2023-04-17T11:34:20.564Z,39.95
2023-04-17T11:35:20.500Z,39.27
2023-04-17T11:36:21.390Z,39.04
2023-04-17T11:37:20.400Z,38.69
2023-04-17T11:38:20.390Z,39.03
2023-04-17T11:39:20.439Z,39.14
2023-04-17T11:40:20.535Z,39.17
2023-04-17T11:41:20.476Z,38.86
2023-04-17T11:42:20.563Z,39.18
2023-04-17T11:43:20.470Z,39.64
2023-04-17T11:44:20.364Z,39.28
2023-04-17T11:45:20.300Z,38.74
2023-04-17T11:46:20.326Z,38.53
2023-04-17T11:47:20.344Z,38.48
2023-04-17T11:48:20.295Z,38.30
2023-04-17T11:49:20.325Z,38.05
2023-04-17T11:50:20.227Z,38.05
2023-04-17T11:51:20.229Z,38.09
2023-04-17T11:52:20.307Z,38.92
2023-04-17T11:53:20.148Z,38.00
2023-04-17T11:54:20.222Z,38.15
2023-04-17T11:55:20.338Z,37.86
2023-04-17T11:56:20.302Z,37.71
2023-04-17T11:57:20.248Z,37.40
2023-04-17T11:58:20.213Z,37.40
2023-04-17T11:59:20.231Z,38.34
2023-04-17T12:00:20.252Z,37.33
2023-04-17T12:01:20.127Z,37.52
2023-04-17T12:02:20.343Z,37.49
2023-04-17T12:03:20.271Z,37.30
2023-04-17T12:04:20.278Z,37.28
2023-04-17T12:05:21.463Z,37.06
2023-04-17T12:06:20.893Z,38.11
2023-04-17T12:07:20.196Z,37.52
2023-04-17T12:08:20.146Z,38.10
2023-04-17T12:09:20.123Z,38.64
2023-04-17T12:10:20.210Z,38.98
2023-04-17T12:11:20.168Z,37.66
2023-04-17T12:12:20.159Z,37.30
2023-04-17T12:13:20.137Z,37.08
2023-04-17T12:14:20.127Z,36.61
2023-04-17T12:15:20.068Z,36.82
2023-04-17T12:16:20.170Z,37.07
2023-04-17T12:17:20.170Z,36.98
2023-04-17T12:18:20.074Z,36.81
2023-04-17T12:19:20.085Z,36.69
2023-04-17T12:20:20.090Z,36.80
2023-04-17T12:21:20.105Z,36.95
2023-04-17T12:22:20.117Z,36.84
2023-04-17T12:23:20.039Z,36.90
2023-04-17T12:24:20.081Z,37.29
2023-04-17T12:25:20.029Z,37.40
2023-04-17T12:26:20.056Z,37.31
2023-04-17T12:27:20.217Z,37.98
2023-04-17T12:28:19.981Z,37.84
2023-04-17T12:29:26.540Z,37.53
2023-04-17T12:30:20.115Z,37.44
2023-04-17T12:31:20.078Z,37.55
2023-04-17T12:32:20.153Z,37.31
2023-04-17T12:33:19.941Z,37.13
2023-04-17T12:34:19.993Z,36.92
2023-04-17T12:35:20.031Z,36.46
2023-04-17T12:36:20.030Z,36.06
2023-04-17T12:37:19.935Z,35.97
2023-04-17T12:38:19.945Z,37.17
2023-04-17T12:39:20.112Z,36.34
2023-04-17T12:40:20.775Z,35.92
2023-04-17T12:41:19.993Z,35.75
2023-04-17T12:42:19.973Z,35.79
2023-04-17T12:43:19.877Z,35.20
2023-04-17T12:44:19.914Z,34.88
2023-04-17T12:45:20.013Z,34.82
2023-04-17T12:46:19.923Z,35.51
2023-04-17T12:47:19.972Z,35.30
2023-04-17T12:48:19.886Z,36.87
2023-04-17T12:49:19.852Z,35.42
2023-04-17T12:50:19.903Z,35.10
2023-04-17T12:51:19.810Z,35.66
2023-04-17T12:52:19.830Z,35.69
2023-04-17T12:53:19.835Z,35.44
2023-04-17T12:54:19.894Z,35.70
2023-04-17T12:55:19.805Z,35.45
2023-04-17T12:56:20.851Z,35.46